Sunwu, China
Current Conditions -  °F | °C
As of 8:00 PM on Wednesday 22 Oct 2014 (Local Time) from UHBB Reporting Station
Clear Clear  
Wind Chill: 33°   Ceiling: Unl
Heat Index: 39°   Visibility: 6mi
Dew Point:   Wind: 9mph
Humidity: 28%   Direction: 170°S
Pressure: 29.74"   Gusts: NA
Location:  49.43°N, 127.35°E
Report Text: UHBB 221200Z 17004MPS 140V200 CAVOK 04/M13 Q1007 NOSIG RMKQFE740/0987 18090060
Loading
Personal Weather Stations






























Interactive Weather Map
Tropical Storm Tracking
New forecast layout! Learn more

10-Day Weather Forecast

Advertisements
Track Severe Weather on mobile